Estación Meteorológica Peña el Pijo (Robertgarden) [ 06/14/24 09:40:27 CEST ]

Fecha Hora Presion(HPa) Temp (°C) Humedad % Rocio (°C) Viento ( m/s) Direccion Lluvia 1Hora(mm) Lluvia 24H(mm) LLuvia Total(mm)
2012-Mar-10 01:01:14 1020.400 -0.1 74 -4.2         153.32
2012-Mar-10 02:08:07 1020.500 1.3 74 -2.9         153.32
2012-Mar-10 03:01:11 1020.400 1.9 77 -1.7         153.32
2012-Mar-10 04:01:16 1020.200 1.8 79 -1.5         153.32
2012-Mar-10 05:01:13 1020.200 1.9 80 -1.2         153.32
2012-Mar-10 06:01:13 1020.400 1.4 80 -1.7         153.32
2012-Mar-10 07:01:17 1020.600 0.8 80 -2.3         153.32
2012-Mar-10 08:01:13 1021.100 0.6 81 -2.3         153.32
2012-Mar-10 09:01:14 1021.100 0.9 80 -2.2         153.32
2012-Mar-10 10:01:13 1021.400 4.7 70 -0.3         153.32
2012-Mar-10 11:01:15 1021.200 8.8 51 -0.8         153.32
2012-Mar-10 12:01:17 1020.900 10.8 37 -3.4         153.32
2012-Mar-10 13:01:16 1020.200 12.7 36 -2.1         153.32
2012-Mar-10 14:01:18 1019.300 13.9 31 -3.0         153.32
2012-Mar-10 15:01:16 1018.400 14.3 28 -4.1         153.32
2012-Mar-10 16:01:15 1017.800 14.9 26 -4.7         153.32
2012-Mar-10 17:01:16 1017.400 13.4 24 -7.0         153.32
2012-Mar-10 18:01:13 1017.800 12.5 22 -8.8         153.32
2012-Mar-10 19:01:16 1017.900 9.6 28 -8.2         153.32
2012-Mar-10 20:01:14 1018.100 7.1 34 -7.8         153.32
2012-Mar-10 21:01:13 1018.600 3.7 41 -8.4         153.32
2012-Mar-10 22:01:16 1018.500 2.1 47 -8.1         153.32
2012-Mar-10 23:01:12 1018.500 1.9 49 -7.7         153.32

Temperatura Máxima:14°    Temperatura Mínima:
Presión Máxima:1021.400 Hpa    Presión Mínima:1017.400 Hpa


Volver